Time;durP1;ratioP1;P1;durP2;ratioP2;P2;SDS_P1;SDS_P2;PMS_P1;PMS_P2;Temp;Humidity;BMP_temperature;BMP_pressure;BME280_temperature;BME280_humidity;BME280_pressure;Samples;Min_cycle;Max_cycle;Signal;HPM_P1;HPM_P2
2024/03/08 00:01:34;;;;;;;1.00;1.00;;;2.70;99.90;;;;;;5077190;28;20206;-79
2024/03/08 00:04:03;;;;;;;1.67;1.58;;;2.70;99.90;;;;;;5077050;28;20202;-79
2024/03/08 00:06:29;;;;;;;0.50;0.50;;;2.70;99.90;;;;;;5076927;28;20190;-79
2024/03/08 00:08:57;;;;;;;2.88;2.40;;;2.60;99.90;;;;;;5076584;28;20222;-78
2024/03/08 00:11:25;;;;;;;7.70;2.20;;;2.60;99.90;;;;;;5076682;28;20202;-78
2024/03/08 00:13:53;;;;;;;0.65;0.65;;;2.50;99.90;;;;;;5076260;28;20293;-79
2024/03/08 00:16:23;;;;;;;0.80;0.80;;;2.50;99.90;;;;;;5076291;28;20312;-79
2024/03/08 00:18:49;;;;;;;0.82;0.82;;;2.50;99.90;;;;;;5076556;28;20210;-80
2024/03/08 00:21:17;;;;;;;1.42;1.33;;;2.50;99.90;;;;;;5076163;28;20226;-79
2024/03/08 00:23:44;;;;;;;1.83;1.73;;;2.40;99.90;;;;;;5075795;28;20197;-79
2024/03/08 00:26:11;;;;;;;0.50;0.40;;;2.40;99.90;;;;;;5075673;28;20542;-79
2024/03/08 00:28:38;;;;;;;1.70;1.60;;;2.40;99.90;;;;;;5076006;28;20226;-80
2024/03/08 00:31:06;;;;;;;1.15;1.10;;;2.40;99.90;;;;;;5081490;28;20197;-80
2024/03/08 00:33:33;;;;;;;0.85;0.85;;;2.40;99.90;;;;;;5081541;28;20233;-81
2024/03/08 00:36:00;;;;;;;0.50;0.50;;;2.40;99.90;;;;;;5081236;28;20206;-80
2024/03/08 00:38:29;;;;;;;4.53;1.90;;;2.40;99.90;;;;;;5080665;28;20330;-79
2024/03/08 00:40:56;;;;;;;4.50;4.10;;;2.40;99.90;;;;;;5080173;28;20225;-80
2024/03/08 00:43:23;;;;;;;4.00;1.70;;;2.40;99.90;;;;;;5080602;28;20562;-81
2024/03/08 00:45:49;;;;;;;1.00;1.00;;;2.40;99.90;;;;;;5080862;28;20206;-80
2024/03/08 00:48:16;;;;;;;0.60;0.60;;;2.40;99.90;;;;;;5080517;28;20222;-80
2024/03/08 00:50:45;;;;;;;1.40;1.30;;;2.40;99.90;;;;;;5080528;28;20198;-80
2024/03/08 00:53:12;;;;;;;1.30;1.30;;;2.30;99.90;;;;;;5080175;28;20198;-80
2024/03/08 00:55:40;;;;;;;1.50;1.40;;;2.30;99.90;;;;;;5079093;28;20687;-80
2024/03/08 00:58:09;;;;;;;3.50;3.22;;;2.20;99.90;;;;;;5080311;28;20218;-80
2024/03/08 01:00:35;;;;;;;0.50;0.50;;;2.20;99.90;;;;;;5079751;28;20210;-80
2024/03/08 01:03:03;;;;;;;0.50;0.50;;;2.20;99.90;;;;;;5080197;28;20612;-80
2024/03/08 01:05:30;;;;;;;3.42;3.30;;;2.20;99.90;;;;;;5080234;28;20203;-80
2024/03/08 01:07:56;;;;;;;0.57;0.57;;;2.20;99.90;;;;;;5079846;28;20230;-79
2024/03/08 01:10:23;;;;;;;4.45;2.95;;;2.20;99.90;;;;;;5079539;28;20546;-80
2024/03/08 01:12:51;;;;;;;0.90;0.70;;;2.10;99.90;;;;;;5080247;28;20198;-80
2024/03/08 01:15:18;;;;;;;1.02;1.02;;;2.20;99.90;;;;;;5079668;28;20202;-80
2024/03/08 01:17:45;;;;;;;0.50;0.50;;;2.20;99.90;;;;;;5079309;28;20225;-80
2024/03/08 01:20:12;;;;;;;6.18;1.90;;;2.10;99.90;;;;;;5079160;28;20712;-80
2024/03/08 01:22:41;;;;;;;2.08;1.98;;;2.10;99.90;;;;;;5077268;28;20244;-79
2024/03/08 01:25:09;;;;;;;3.90;2.80;;;2.10;99.90;;;;;;5077629;28;20206;-79
2024/03/08 01:27:36;;;;;;;2.55;2.35;;;2.10;99.90;;;;;;5076996;28;20214;-79
2024/03/08 01:30:05;;;;;;;2.15;2.05;;;2.10;99.90;;;;;;5076926;28;20561;-79
2024/03/08 01:32:32;;;;;;;2.63;1.70;;;2.10;99.90;;;;;;5077345;28;20225;-79
2024/03/08 01:35:00;;;;;;;2.15;2.05;;;2.10;99.90;;;;;;5077587;28;20741;-79
2024/03/08 01:37:26;;;;;;;0.70;0.70;;;2.10;99.90;;;;;;5077301;28;20225;-80
2024/03/08 01:39:53;;;;;;;3.33;3.10;;;2.10;99.90;;;;;;5075646;28;20214;-79
2024/03/08 01:42:20;;;;;;;2.35;2.25;;;2.10;99.90;;;;;;5076436;28;20214;-79
2024/03/08 01:44:46;;;;;;;0.95;0.95;;;2.10;99.90;;;;;;5076864;28;20569;-79
2024/03/08 01:47:15;;;;;;;0.50;0.50;;;2.00;99.90;;;;;;5076524;28;20221;-80
2024/03/08 01:49:42;;;;;;;0.50;0.50;;;2.00;99.90;;;;;;5076357;28;20190;-79
2024/03/08 01:52:09;;;;;;;11.10;4.45;;;1.90;99.90;;;;;;5076320;28;20202;-79
2024/03/08 01:54:37;;;;;;;1.70;1.50;;;1.90;99.90;;;;;;5075577;28;20691;-79
2024/03/08 01:57:04;;;;;;;1.35;1.35;;;1.90;99.90;;;;;;5076072;28;20219;-80
2024/03/08 01:59:31;;;;;;;1.85;1.75;;;1.80;99.90;;;;;;5075980;28;20683;-79
2024/03/08 02:02:01;;;;;;;0.50;0.50;;;1.70;99.90;;;;;;5075766;28;20199;-80
2024/03/08 02:04:30;;;;;;;1.77;1.15;;;1.70;99.90;;;;;;5075881;28;20205;-79
2024/03/08 02:06:57;;;;;;;4.00;3.80;;;1.70;99.90;;;;;;5076010;28;20202;-79
2024/03/08 02:09:25;;;;;;;1.45;1.45;;;1.70;99.90;;;;;;5075613;28;20285;-79
2024/03/08 02:11:54;;;;;;;0.60;0.50;;;1.70;99.90;;;;;;5075790;28;20224;-80
2024/03/08 02:14:21;;;;;;;0.50;0.50;;;1.60;99.90;;;;;;5074629;28;20260;-80
2024/03/08 02:16:48;;;;;;;0.50;0.50;;;1.60;99.90;;;;;;5075605;28;20657;-79
2024/03/08 02:19:14;;;;;;;0.50;0.47;;;1.60;99.90;;;;;;5075519;28;20198;-79
2024/03/08 02:21:43;;;;;;;2.22;2.13;;;1.50;99.90;;;;;;5075515;28;20214;-79
2024/03/08 02:24:10;;;;;;;1.60;1.50;;;1.50;99.90;;;;;;5075339;28;20277;-79
2024/03/08 02:26:37;;;;;;;0.50;0.50;;;1.50;99.90;;;;;;5075652;28;20669;-78
2024/03/08 02:29:05;;;;;;;0.50;0.50;;;1.50;99.90;;;;;;5075125;28;20212;-79
2024/03/08 02:31:31;;;;;;;1.05;1.05;;;1.50;99.90;;;;;;5074845;28;20197;-79
2024/03/08 02:33:59;;;;;;;0.50;0.50;;;1.40;99.90;;;;;;5074886;28;20204;-79
2024/03/08 02:36:26;;;;;;;0.50;0.50;;;1.40;99.90;;;;;;5074942;28;20277;-79
2024/03/08 02:38:55;;;;;;;0.50;0.50;;;1.30;99.90;;;;;;5075286;28;20221;-79
2024/03/08 02:41:22;;;;;;;1.25;1.20;;;1.30;99.90;;;;;;5074757;28;20276;-79
2024/03/08 02:43:50;;;;;;;0.50;0.50;;;1.30;99.90;;;;;;5074932;28;20256;-79
2024/03/08 02:46:17;;;;;;;7.70;4.43;;;1.30;99.90;;;;;;5074432;28;20692;-79
2024/03/08 02:48:43;;;;;;;0.70;0.70;;;1.30;99.90;;;;;;5074538;28;20219;-79
2024/03/08 02:51:11;;;;;;;2.08;1.92;;;1.20;99.90;;;;;;5074153;28;20201;-79
2024/03/08 02:53:40;;;;;;;0.70;0.70;;;1.20;99.90;;;;;;5074487;28;20216;-79
2024/03/08 02:56:08;;;;;;;0.80;0.80;;;1.20;99.90;;;;;;5074347;28;20591;-80
2024/03/08 02:58:35;;;;;;;6.07;2.90;;;1.20;99.90;;;;;;5074795;28;20214;-78
2024/03/08 03:01:03;;;;;;;0.50;0.50;;;1.20;99.90;;;;;;5072790;28;20680;-79
2024/03/08 03:03:30;;;;;;;0.50;0.50;;;1.30;99.90;;;;;;5073903;28;20205;-79
2024/03/08 03:05:57;;;;;;;1.25;0.90;;;1.30;99.90;;;;;;5073614;28;20685;-79
2024/03/08 03:08:23;;;;;;;0.60;0.60;;;1.20;99.90;;;;;;5073926;28;20218;-79
2024/03/08 03:10:52;;;;;;;1.35;1.35;;;1.20;99.90;;;;;;5073787;28;20564;-79
2024/03/08 03:13:20;;;;;;;0.50;0.45;;;1.20;99.90;;;;;;5073248;28;20197;-79
2024/03/08 03:15:47;;;;;;;0.50;0.50;;;1.20;99.90;;;;;;5073109;28;20226;-79
2024/03/08 03:18:15;;;;;;;2.72;2.63;;;1.20;99.90;;;;;;5072902;28;20214;-78
2024/03/08 03:20:44;;;;;;;0.50;0.50;;;1.10;99.90;;;;;;5072811;28;20214;-79
2024/03/08 03:23:14;;;;;;;1.70;1.60;;;1.10;99.90;;;;;;5071545;28;20568;-78
2024/03/08 03:25:41;;;;;;;7.55;3.25;;;1.20;99.90;;;;;;5072415;28;20201;-78
2024/03/08 03:28:10;;;;;;;0.60;0.60;;;1.20;99.90;;;;;;5072307;28;20222;-79
2024/03/08 03:30:39;;;;;;;4.05;2.35;;;1.10;99.90;;;;;;5071938;28;20616;-79
2024/03/08 03:33:06;;;;;;;1.90;1.80;;;1.10;99.90;;;;;;5072247;28;20194;-79
2024/03/08 03:35:34;;;;;;;0.70;0.70;;;1.10;99.90;;;;;;5072355;28;20221;-78
2024/03/08 03:38:06;;;;;;;0.50;0.50;;;1.10;99.90;;;;;;5075675;28;20236;-79
2024/03/08 03:40:33;;;;;;;0.50;0.50;;;1.10;99.90;;;;;;5073948;28;20206;-79
2024/03/08 03:43:02;;;;;;;4.60;2.30;;;1.20;99.90;;;;;;5074375;28;20206;-79
2024/03/08 03:45:29;;;;;;;0.60;0.60;;;1.10;99.90;;;;;;5074465;28;20699;-79
2024/03/08 03:48:00;;;;;;;3.15;2.95;;;1.10;99.90;;;;;;5074502;28;20210;-79
2024/03/08 03:50:27;;;;;;;0.60;0.60;;;1.10;99.90;;;;;;5074432;28;20195;-79
2024/03/08 03:52:53;;;;;;;4.43;1.58;;;1.10;99.90;;;;;;5074013;28;20612;-79
2024/03/08 03:55:21;;;;;;;9.90;3.60;;;1.10;99.90;;;;;;5073764;28;20202;-78
2024/03/08 03:57:49;;;;;;;4.32;3.17;;;1.10;99.90;;;;;;5072565;28;20210;-79
2024/03/08 04:00:16;;;;;;;1.42;1.33;;;1.10;99.90;;;;;;5074444;28;20205;-78
2024/03/08 04:02:43;;;;;;;2.53;2.35;;;1.00;99.90;;;;;;5073778;28;20202;-79
2024/03/08 04:05:12;;;;;;;2.97;2.70;;;1.00;99.90;;;;;;5074587;28;20550;-79
2024/03/08 04:07:39;;;;;;;0.70;0.70;;;1.00;99.90;;;;;;5072915;28;20214;-78
2024/03/08 04:10:08;;;;;;;2.90;2.67;;;1.00;99.90;;;;;;5073534;28;20217;-79
2024/03/08 04:12:34;;;;;;;0.50;0.47;;;0.90;99.90;;;;;;5073352;28;20195;-79
2024/03/08 04:15:01;;;;;;;6.40;3.60;;;0.90;99.90;;;;;;5073539;28;20689;-79
2024/03/08 04:17:28;;;;;;;0.50;0.50;;;0.90;99.90;;;;;;5073528;28;20222;-79
2024/03/08 04:19:55;;;;;;;2.67;2.47;;;0.80;99.90;;;;;;5073698;28;20209;-79
2024/03/08 04:22:23;;;;;;;0.50;0.50;;;0.80;99.90;;;;;;5073301;28;20226;-78
2024/03/08 04:24:50;;;;;;;1.65;1.55;;;0.80;99.90;;;;;;5073104;28;20199;-80
2024/03/08 04:27:17;;;;;;;0.50;0.50;;;0.80;99.90;;;;;;5072825;28;20218;-79
2024/03/08 04:29:44;;;;;;;2.17;2.08;;;0.70;99.90;;;;;;5073338;28;20708;-78
2024/03/08 04:32:13;;;;;;;3.17;2.78;;;0.70;99.90;;;;;;5072793;28;20199;-79
2024/03/08 04:34:40;;;;;;;0.50;0.50;;;0.70;99.90;;;;;;5072934;28;20193;-79
2024/03/08 04:37:06;;;;;;;0.50;0.50;;;0.60;99.90;;;;;;5072527;28;20222;-79
2024/03/08 04:39:34;;;;;;;10.65;3.42;;;0.60;99.90;;;;;;5072667;28;20194;-80
2024/03/08 04:42:04;;;;;;;0.50;0.50;;;0.50;99.90;;;;;;5072104;28;20695;-79
2024/03/08 04:44:31;;;;;;;2.97;2.88;;;0.50;99.90;;;;;;5075824;28;20229;-79
2024/03/08 04:47:00;;;;;;;2.05;1.45;;;0.40;99.90;;;;;;5076109;28;20226;-79
2024/03/08 04:49:27;;;;;;;1.15;1.05;;;0.40;99.90;;;;;;5075655;28;20222;-79
2024/03/08 04:51:54;;;;;;;0.50;0.50;;;0.40;99.90;;;;;;5075645;28;20231;-79
2024/03/08 04:54:21;;;;;;;0.50;0.50;;;0.40;99.90;;;;;;5075375;28;20546;-80
2024/03/08 04:56:49;;;;;;;0.50;0.50;;;0.30;99.90;;;;;;5075198;28;20195;-79
2024/03/08 04:59:15;;;;;;;1.30;1.30;;;0.30;99.90;;;;;;5075325;28;20195;-80
2024/03/08 05:01:43;;;;;;;1.90;1.80;;;0.30;99.90;;;;;;5075154;28;20206;-80
2024/03/08 05:04:09;;;;;;;1.85;0.98;;;0.30;99.90;;;;;;5074330;28;20199;-80
2024/03/08 05:06:37;;;;;;;0.50;0.50;;;0.30;99.90;;;;;;5079442;28;20194;-79
2024/03/08 05:09:13;;;;;;;0.50;0.50;;;0.30;99.90;;;;;;5080274;28;20724;-80
2024/03/08 05:11:40;;;;;;;2.28;2.08;;;0.30;99.90;;;;;;5080359;28;20677;-81
2024/03/08 05:14:10;;;;;;;0.50;0.50;;;0.30;99.90;;;;;;5080186;28;20198;-80
2024/03/08 05:16:37;;;;;;;0.50;0.50;;;0.30;99.90;;;;;;5079852;28;20194;-80
2024/03/08 05:19:04;;;;;;;1.25;1.15;;;0.20;99.90;;;;;;5079208;28;20265;-79
2024/03/08 05:21:31;;;;;;;1.25;1.15;;;0.10;99.90;;;;;;5079739;28;20214;-81
2024/03/08 05:23:58;;;;;;;0.63;0.60;;;0.10;99.90;;;;;;5079610;28;20194;-80
2024/03/08 05:26:26;;;;;;;0.50;0.50;;;0.10;99.90;;;;;;5079195;28;20201;-81
2024/03/08 05:28:53;;;;;;;0.50;0.50;;;0.10;99.90;;;;;;5080336;28;20219;-81
2024/03/08 05:31:23;;;;;;;0.50;0.50;;;0.10;99.90;;;;;;5081521;28;20580;-81
2024/03/08 05:33:50;;;;;;;1.83;1.73;;;0.10;99.90;;;;;;5080927;28;20191;-81
2024/03/08 05:36:17;;;;;;;0.50;0.50;;;0.10;99.90;;;;;;5079881;28;20218;-82
2024/03/08 05:38:46;;;;;;;0.50;0.50;;;0.10;99.90;;;;;;5081398;28;20218;-80
2024/03/08 05:41:16;;;;;;;1.67;1.58;;;0.10;99.90;;;;;;5080991;28;20222;-81
2024/03/08 05:43:43;;;;;;;0.50;0.50;;;0.10;99.90;;;;;;5078616;28;20194;-80
2024/03/08 05:46:12;;;;;;;3.92;3.78;;;0.10;99.90;;;;;;5078547;28;20202;-78
2024/03/08 05:48:41;;;;;;;2.67;2.47;;;0.10;99.90;;;;;;5077892;28;20230;-78
2024/03/08 05:51:15;;;;;;;0.50;0.50;;;0.20;99.90;;;;;;5078045;28;20190;-79
2024/03/08 05:53:43;;;;;;;3.90;3.15;;;0.20;99.90;;;;;;5074448;28;20185;-80
2024/03/08 05:56:09;;;;;;;0.50;0.50;;;0.20;99.90;;;;;;5062432;28;20188;-80
2024/03/08 05:58:36;;;;;;;11.35;2.90;;;0.20;99.90;;;;;;5068937;28;20207;-79
2024/03/08 06:01:07;;;;;;;4.18;3.72;;;0.20;99.90;;;;;;5078083;28;20209;-81
2024/03/08 06:03:34;;;;;;;0.60;0.60;;;0.20;99.90;;;;;;5078966;28;20222;-81
2024/03/08 06:06:02;;;;;;;2.90;2.25;;;0.20;99.90;;;;;;5079686;28;20194;-81
2024/03/08 06:08:30;;;;;;;0.50;0.50;;;0.20;99.90;;;;;;5079863;28;20218;-80
2024/03/08 06:10:58;;;;;;;1.05;1.05;;;0.20;99.90;;;;;;5079935;28;20200;-81
2024/03/08 06:13:25;;;;;;;0.50;0.50;;;0.20;99.90;;;;;;5079957;28;20267;-81
2024/03/08 06:15:52;;;;;;;0.98;0.98;;;0.20;99.90;;;;;;5079703;28;20201;-80
2024/03/08 06:18:20;;;;;;;0.60;0.60;;;0.20;99.90;;;;;;5079734;28;20247;-81
2024/03/08 06:20:47;;;;;;;2.92;2.55;;;0.20;99.90;;;;;;5080527;28;20195;-81
2024/03/08 06:23:17;;;;;;;2.75;2.65;;;0.20;99.90;;;;;;5082469;28;20218;-82
2024/03/08 06:25:44;;;;;;;4.07;3.88;;;0.30;99.90;;;;;;5082150;28;20237;-80
2024/03/08 06:28:11;;;;;;;18.35;5.68;;;0.40;99.90;;;;;;5079116;28;20214;-81
2024/03/08 06:30:37;;;;;;;2.40;2.22;;;0.50;99.90;;;;;;5078499;28;20229;-81
2024/03/08 06:33:04;;;;;;;2.15;1.67;;;0.60;99.90;;;;;;5079497;28;20197;-80
2024/03/08 06:35:32;;;;;;;2.50;2.40;;;0.60;99.90;;;;;;5078689;28;20198;-83
2024/03/08 06:37:59;;;;;;;2.22;2.13;;;0.60;99.90;;;;;;5081339;28;20596;-82
2024/03/08 06:40:27;;;;;;;0.50;0.50;;;0.70;99.90;;;;;;5079994;28;20194;-83
2024/03/08 06:42:54;;;;;;;1.00;0.90;;;0.80;99.90;;;;;;5081261;28;20227;-83
2024/03/08 06:45:23;;;;;;;2.10;1.92;;;1.00;99.90;;;;;;5079212;28;20205;-80
2024/03/08 06:47:50;;;;;;;1.70;1.60;;;1.10;99.90;;;;;;5081022;28;20218;-82
2024/03/08 06:50:17;;;;;;;0.88;0.88;;;1.20;99.90;;;;;;5081271;28;20282;-81
2024/03/08 06:52:44;;;;;;;2.03;1.92;;;1.30;99.90;;;;;;5079961;28;20194;-80
2024/03/08 06:55:12;;;;;;;0.50;0.40;;;1.40;99.90;;;;;;5081274;28;20194;-81
2024/03/08 06:57:42;;;;;;;2.03;1.92;;;1.60;99.90;;;;;;5082761;28;20719;-83
2024/03/08 07:00:13;;;;;;;0.50;0.50;;;1.70;99.90;;;;;;5082712;28;20202;-81
2024/03/08 07:02:41;;;;;;;0.50;0.50;;;1.80;99.90;;;;;;5078411;28;20214;-81
2024/03/08 07:05:10;;;;;;;3.30;3.10;;;1.90;99.90;;;;;;5080823;28;20194;-80
2024/03/08 07:07:37;;;;;;;0.75;0.75;;;2.10;99.90;;;;;;5078988;28;20218;-80
2024/03/08 07:10:04;;;;;;;0.65;0.65;;;2.10;99.90;;;;;;5078245;28;20190;-82
2024/03/08 07:12:31;;;;;;;3.17;3.08;;;2.30;99.90;;;;;;5079237;28;20191;-80
2024/03/08 07:14:59;;;;;;;3.58;3.38;;;2.30;99.90;;;;;;5077753;28;20194;-80
2024/03/08 07:17:25;;;;;;;2.28;1.63;;;2.40;99.90;;;;;;5077735;28;20214;-82
2024/03/08 07:19:53;;;;;;;1.83;1.83;;;2.50;99.90;;;;;;5075667;28;20206;-82
2024/03/08 07:22:22;;;;;;;1.77;1.50;;;2.50;99.90;;;;;;5077630;28;20225;-82
2024/03/08 07:25:04;;;;;;;1.63;0.80;;;2.60;99.90;;;;;;5075828;28;20244;-81
2024/03/08 07:27:31;;;;;;;3.05;2.85;;;2.60;99.90;;;;;;5074835;28;20635;-82
2024/03/08 07:30:00;;;;;;;4.05;3.75;;;2.70;99.90;;;;;;5075328;28;20221;-80
2024/03/08 07:32:29;;;;;;;2.05;1.95;;;2.90;99.90;;;;;;5075549;28;20194;-81
2024/03/08 07:34:56;;;;;;;2.15;1.00;;;3.10;99.90;;;;;;5074933;28;20216;-81
2024/03/08 07:37:23;;;;;;;3.47;3.28;;;3.10;99.90;;;;;;5075244;28;20728;-81
2024/03/08 07:39:50;;;;;;;2.08;1.98;;;3.10;99.90;;;;;;5071098;28;20312;-80
2024/03/08 07:42:17;;;;;;;3.35;3.15;;;3.20;99.90;;;;;;5061015;28;20256;-81
2024/03/08 07:44:45;;;;;;;1.13;1.05;;;3.40;99.90;;;;;;5056726;28;20191;-81
2024/03/08 07:47:14;;;;;;;8.05;6.15;;;3.80;99.90;;;;;;5066729;28;20265;-81
2024/03/08 07:49:41;;;;;;;1.67;1.58;;;4.10;99.90;;;;;;5064051;28;20196;-82
2024/03/08 07:52:08;;;;;;;11.30;3.85;;;4.60;99.90;;;;;;5064274;28;20205;-81
2024/03/08 07:54:35;;;;;;;5.50;4.45;;;5.20;99.90;;;;;;5071666;28;20198;-81
2024/03/08 07:57:04;;;;;;;8.32;3.58;;;5.60;99.90;;;;;;5077167;28;20591;-82
2024/03/08 07:59:31;;;;;;;9.80;5.30;;;5.90;99.90;;;;;;5076218;28;20198;-81
2024/03/08 08:01:59;;;;;;;4.18;2.80;;;6.10;99.90;;;;;;5076860;28;20570;-81
2024/03/08 08:04:27;;;;;;;2.00;1.48;;;6.20;99.90;;;;;;5069325;28;20194;-82
2024/03/08 08:06:54;;;;;;;6.68;3.58;;;6.70;99.90;;;;;;5072024;28;20202;-81
2024/03/08 08:09:28;;;;;;;5.03;2.75;;;7.10;99.90;;;;;;5071211;28;20569;-81
2024/03/08 08:11:55;;;;;;;1.42;1.33;;;7.20;99.90;;;;;;5076714;28;20194;-82
2024/03/08 08:14:22;;;;;;;6.90;4.47;;;7.50;99.90;;;;;;5077106;28;20201;-81
2024/03/08 08:16:52;;;;;;;3.47;3.25;;;8.10;99.90;;;;;;5075006;28;20199;-80
2024/03/08 08:19:19;;;;;;;5.75;4.00;;;8.60;99.90;;;;;;5078317;28;20195;-82
2024/03/08 08:21:47;;;;;;;6.07;4.13;;;9.30;99.90;;;;;;5080880;28;20581;-81
2024/03/08 08:24:14;;;;;;;5.57;5.17;;;9.90;99.90;;;;;;5080674;28;20194;-81
2024/03/08 08:26:41;;;;;;;2.63;1.63;;;10.50;99.90;;;;;;5079950;28;20439;-80
2024/03/08 08:29:08;;;;;;;2.10;1.77;;;11.40;99.90;;;;;;5079147;28;20839;-80
2024/03/08 08:31:34;;;;;;;3.23;2.10;;;12.00;99.40;;;;;;5079777;28;20432;-82
2024/03/08 08:34:03;;;;;;;1.43;1.03;;;12.40;96.10;;;;;;5081743;28;20471;-82
2024/03/08 08:36:31;;;;;;;3.43;2.77;;;12.90;95.20;;;;;;5080877;28;20436;-81
2024/03/08 08:38:59;;;;;;;2.90;2.70;;;13.30;91.80;;;;;;5079961;28;20460;-81
2024/03/08 08:41:26;;;;;;;5.80;4.67;;;12.90;89.10;;;;;;5080106;28;20440;-81
2024/03/08 08:43:53;;;;;;;8.10;3.20;;;13.20;90.30;;;;;;5079066;28;20515;-82
2024/03/08 08:46:21;;;;;;;2.23;1.57;;;13.50;90.60;;;;;;5078280;28;20804;-81
2024/03/08 08:48:48;;;;;;;2.80;2.53;;;14.60;86.10;;;;;;5080004;28;20456;-81
2024/03/08 08:51:15;;;;;;;0.97;0.50;;;14.90;83.60;;;;;;5079710;28;20432;-81
2024/03/08 08:53:43;;;;;;;2.73;2.63;;;15.50;84.40;;;;;;5079458;28;20432;-82
2024/03/08 08:56:12;;;;;;;2.80;1.43;;;16.50;80.50;;;;;;5078563;28;20437;-83
2024/03/08 08:58:40;;;;;;;0.70;0.60;;;16.80;79.80;;;;;;5079708;28;20467;-78
2024/03/08 09:01:07;;;;;;;1.00;1.00;;;16.50;76.70;;;;;;5080898;28;20466;-79
2024/03/08 09:03:36;;;;;;;4.00;3.60;;;17.00;74.40;;;;;;5084360;28;20495;-83
2024/03/08 09:06:05;;;;;;;2.20;2.10;;;17.50;74.10;;;;;;5079509;28;20440;-82
2024/03/08 09:08:32;;;;;;;9.80;2.37;;;17.80;70.60;;;;;;5080843;28;20483;-81
2024/03/08 09:11:00;;;;;;;2.20;2.00;;;17.10;69.10;;;;;;5077571;28;20859;-82
2024/03/08 09:13:28;;;;;;;1.57;1.47;;;17.10;67.50;;;;;;5080181;28;20444;-81
2024/03/08 09:15:55;;;;;;;3.90;2.10;;;16.30;68.80;;;;;;5078683;28;20483;-81
2024/03/08 09:18:22;;;;;;;5.87;2.30;;;15.60;66.90;;;;;;5078450;28;20467;-81
2024/03/08 09:20:49;;;;;;;10.43;2.30;;;15.40;67.50;;;;;;5077545;28;20441;-81
2024/03/08 09:23:16;;;;;;;3.33;2.50;;;15.80;70.90;;;;;;5076865;28;20491;-82
2024/03/08 09:25:43;;;;;;;1.20;1.10;;;16.10;68.30;;;;;;5077006;28;20440;-81
2024/03/08 09:28:11;;;;;;;3.47;2.90;;;16.30;68.50;;;;;;5075989;28;20467;-81
2024/03/08 09:30:39;;;;;;;1.80;0.90;;;15.80;65.80;;;;;;5075748;28;20946;-82
2024/03/08 09:33:07;;;;;;;2.53;2.33;;;15.20;69.00;;;;;;5075719;28;20437;-82
2024/03/08 09:35:34;;;;;;;1.03;0.90;;;15.50;68.80;;;;;;5080761;28;20440;-82
2024/03/08 09:38:00;;;;;;;4.63;2.57;;;16.10;71.50;;;;;;5082056;28;20452;-83
2024/03/08 09:40:27;;;;;;;4.00;3.60;;;16.30;68.50;;;;;;5082212;28;20436;-83
2024/03/08 09:42:55;;;;;;;2.20;1.73;;;17.00;69.70;;;;;;5081407;28;20476;-80
2024/03/08 09:45:23;;;;;;;0.90;0.90;;;17.40;66.60;;;;;;5080810;28;20756;-81
2024/03/08 09:47:53;;;;;;;2.93;2.73;;;17.60;66.70;;;;;;5081826;28;20511;-81
2024/03/08 09:50:20;;;;;;;1.13;1.03;;;17.70;64.50;;;;;;5082498;28;20520;-80
2024/03/08 09:52:49;;;;;;;1.90;1.33;;;17.50;63.50;;;;;;5080994;28;20440;-82
2024/03/08 09:55:21;;;;;;;0.50;0.40;;;17.20;63.80;;;;;;5081805;28;20958;-82
2024/03/08 09:58:16;;;;;;;4.47;3.77;;;17.20;64.80;;;;;;5081166;28;20471;-81
2024/03/08 10:00:41;;;;;;;1.17;1.10;;;16.10;62.80;;;;;;5082314;28;20467;-81
2024/03/08 10:03:10;;;;;;;3.40;2.97;;;16.50;64.90;;;;;;5082420;28;21029;-82
2024/03/08 10:05:37;;;;;;;0.50;0.40;;;16.30;65.30;;;;;;5081577;28;20959;-81
2024/03/08 10:08:05;;;;;;;2.10;2.00;;;16.30;64.70;;;;;;5082039;28;20460;-80
2024/03/08 10:10:31;;;;;;;6.57;5.97;;;16.60;65.00;;;;;;5080445;28;20467;-81
2024/03/08 10:12:59;;;;;;;0.60;0.50;;;16.60;63.00;;;;;;5079930;28;20436;-82
2024/03/08 10:15:28;;;;;;;1.90;1.80;;;16.10;65.60;;;;;;5080094;28;20439;-80
2024/03/08 10:17:57;;;;;;;1.10;0.77;;;15.60;64.60;;;;;;5079988;28;20457;-80
2024/03/08 10:20:26;;;;;;;0.63;0.63;;;16.10;69.10;;;;;;5080102;28;20433;-81
2024/03/08 10:22:53;;;;;;;4.17;3.00;;;16.30;65.20;;;;;;5080052;28;21047;-82
2024/03/08 10:25:20;;;;;;;2.67;2.00;;;16.80;66.10;;;;;;5080255;28;20437;-81
2024/03/08 10:27:47;;;;;;;2.50;1.07;;;17.50;65.60;;;;;;5081184;28;20467;-81
2024/03/08 10:30:19;;;;;;;2.00;1.40;;;17.90;63.20;;;;;;5081252;28;20434;-82
2024/03/08 10:32:46;;;;;;;4.63;4.23;;;17.90;61.50;;;;;;5081076;28;20467;-81
2024/03/08 10:35:16;;;;;;;1.33;0.80;;;17.80;62.00;;;;;;5081003;28;20524;-81
2024/03/08 10:37:47;;;;;;;50.63;5.30;;;18.10;62.80;;;;;;5079744;28;20516;-82
2024/03/08 10:40:18;;;;;;;5.00;2.10;;;18.50;61.60;;;;;;5078639;28;20474;-82
2024/03/08 10:42:52;;;;;;;5.97;5.27;;;18.70;61.50;;;;;;5078887;28;20487;-81
2024/03/08 10:45:30;;;;;;;0.70;0.70;;;18.40;59.50;;;;;;5078505;28;20436;-80
2024/03/08 10:48:09;;;;;;;1.73;0.70;;;18.60;61.30;;;;;;5078471;28;20552;-81
2024/03/08 10:50:37;;;;;;;1.77;1.67;;;18.40;59.20;;;;;;5079553;28;20429;-80
2024/03/08 10:53:10;;;;;;;3.00;2.87;;;18.30;60.60;;;;;;5079234;28;20440;-80
2024/03/08 10:55:40;;;;;;;0.77;0.77;;;18.40;60.20;;;;;;5079178;28;20931;-81
2024/03/08 10:58:08;;;;;;;1.73;1.63;;;18.90;64.00;;;;;;5079871;28;20465;-81
2024/03/08 11:00:35;;;;;;;2.53;1.47;;;19.30;59.50;;;;;;5079776;28;20482;-82
2024/03/08 11:03:03;;;;;;;3.93;3.40;;;18.80;58.50;;;;;;5072679;28;20479;-80
2024/03/08 11:05:38;;;;;;;2.23;2.10;;;19.10;61.90;;;;;;5063675;28;20493;-81
2024/03/08 11:08:18;;;;;;;6.03;3.60;;;19.20;59.50;;;;;;5078896;28;20453;-81
2024/03/08 11:10:51;;;;;;;0.50;0.50;;;19.70;60.40;;;;;;5078701;28;20528;-85
2024/03/08 11:13:36;;;;;;;2.37;2.20;;;20.30;59.60;;;;;;5070276;28;20443;-80
2024/03/08 11:16:05;;;;;;;2.93;2.63;;;20.70;59.60;;;;;;5072391;28;20446;-81
2024/03/08 11:18:34;;;;;;;4.40;2.77;;;20.70;58.70;;;;;;5076154;28;20466;-81
2024/03/08 11:21:05;;;;;;;1.13;1.03;;;20.30;57.00;;;;;;5077032;28;20443;-82
2024/03/08 11:23:35;;;;;;;3.07;2.80;;;20.30;58.60;;;;;;5075224;28;20559;-80
2024/03/08 11:26:05;;;;;;;0.50;0.50;;;20.40;57.10;;;;;;5076072;28;20430;-80
2024/03/08 11:28:32;;;;;;;1.50;1.40;;;20.70;59.50;;;;;;5075812;28;20463;-80
2024/03/08 11:31:25;;;;;;;0.50;0.50;;;20.60;57.00;;;;;;5075312;28;20450;-80
2024/03/08 11:33:53;;;;;;;4.97;3.23;;;20.70;58.40;;;;;;5074067;28;20469;-80
2024/03/08 11:36:22;;;;;;;2.10;1.90;;;20.30;57.10;;;;;;5076139;28;20473;-80
2024/03/08 11:38:52;;;;;;;8.17;3.97;;;20.50;57.70;;;;;;5075453;28;20462;-80
2024/03/08 11:41:22;;;;;;;1.87;0.87;;;20.40;57.80;;;;;;5075427;28;20451;-82
2024/03/08 11:43:51;;;;;;;1.13;1.13;;;20.60;59.30;;;;;;5073532;28;20479;-80
2024/03/08 11:46:18;;;;;;;10.33;6.07;;;20.80;57.80;;;;;;5073626;28;20447;-81
2024/03/08 11:48:48;;;;;;;4.50;1.73;;;20.90;56.00;;;;;;5072873;28;20473;-82
2024/03/08 11:51:18;;;;;;;1.83;1.07;;;19.30;55.50;;;;;;5073258;28;20461;-81
2024/03/08 11:53:45;;;;;;;0.93;0.93;;;19.40;58.40;;;;;;5075240;28;20432;-81
2024/03/08 11:56:15;;;;;;;5.50;2.80;;;19.80;57.80;;;;;;5080769;28;20433;-81
2024/03/08 11:58:42;;;;;;;7.00;2.30;;;19.70;57.20;;;;;;5084583;28;20839;-84
2024/03/08 12:01:12;;;;;;;4.27;3.90;;;19.70;56.60;;;;;;5093020;28;20466;-81
2024/03/08 12:03:38;;;;;;;1.43;1.33;;;19.10;56.70;;;;;;5094348;28;20530;-83
2024/03/08 12:06:05;;;;;;;1.80;1.70;;;19.20;57.90;;;;;;5094086;28;20438;-83
2024/03/08 12:08:34;;;;;;;6.00;4.00;;;19.50;59.00;;;;;;5094545;28;20463;-83
2024/03/08 12:11:01;;;;;;;3.47;1.47;;;19.70;56.70;;;;;;5094251;28;20444;-83
2024/03/08 12:13:30;;;;;;;2.80;2.60;;;19.70;57.50;;;;;;5094180;28;20463;-85
2024/03/08 12:15:59;;;;;;;1.83;1.73;;;20.00;58.70;;;;;;5094221;28;20495;-83
2024/03/08 12:18:26;;;;;;;0.93;0.93;;;19.20;56.60;;;;;;5094147;28;20461;-83
2024/03/08 12:21:04;;;;;;;3.80;3.23;;;19.10;57.80;;;;;;5093832;28;20466;-82
2024/03/08 12:23:31;;;;;;;4.43;2.50;;;19.10;56.60;;;;;;5095044;28;20540;-83
2024/03/08 12:25:57;;;;;;;2.93;1.90;;;19.10;58.20;;;;;;5093692;28;20436;-85
2024/03/08 12:28:27;;;;;;;2.70;2.23;;;19.70;58.90;;;;;;5091938;28;20513;-84
2024/03/08 12:30:57;;;;;;;1.50;1.40;;;19.80;56.60;;;;;;5090358;28;20437;-81
2024/03/08 12:33:24;;;;;;;2.50;1.60;;;19.50;56.60;;;;;;5088583;28;20440;-84
2024/03/08 12:35:55;;;;;;;1.97;1.80;;;20.20;57.30;;;;;;5092507;28;20433;-81
2024/03/08 12:38:24;;;;;;;4.23;3.23;;;19.90;56.80;;;;;;5091191;28;20461;-84
2024/03/08 12:40:53;;;;;;;1.80;1.70;;;20.00;56.00;;;;;;5090983;28;20442;-80
2024/03/08 12:43:21;;;;;;;2.70;2.20;;;20.50;58.00;;;;;;5089739;28;20499;-82
2024/03/08 12:45:48;;;;;;;3.33;3.03;;;20.00;55.40;;;;;;5090726;28;20499;-82
2024/03/08 12:48:16;;;;;;;2.30;1.40;;;19.80;56.00;;;;;;5086938;28;20469;-80
2024/03/08 12:50:47;;;;;;;0.80;0.80;;;20.30;56.60;;;;;;5086635;28;20449;-80
2024/03/08 12:53:14;;;;;;;1.90;1.80;;;20.60;56.40;;;;;;5089107;28;20434;-82
2024/03/08 12:55:41;;;;;;;4.77;1.80;;;20.60;54.90;;;;;;5087511;28;20526;-80
2024/03/08 12:58:08;;;;;;;1.53;1.43;;;20.20;55.40;;;;;;5091570;28;20464;-82